ZGSZ

Shenzhen Bao'an International Airport

Shenzhen, China
TAF ZGSZ 231522Z 2318/2418 17004MPS 6000 FEW015 SCT035 TX26/2406Z TN22/2322Z BECMG 2320/2321 34005G10MPS TEMPO 2320/2402 1600 TSRA SCT012 FEW020CB BKN030 TEMPO 2402/2406 2000 SHRA SCT012 FEW020CB BKN030
Issued Valid From Valid To
Apr-23 @ 15:22 UTC
(8 hours ago)
Apr-23 @ 18:00 UTC
(5 hours ago)
Apr-24 @ 18:00 UTC
(in 19 hours)
Expired Click to View Apr-23 @ 18:00 to Apr-23 @ 20:00
TAF ZGSZ 231522Z 2318/2418 17004MPS 6000 FEW015 SCT035 TX26/2406Z TN22/2322Z
Wind Visibility Clouds
170° at 8 knots 6,003 meters
  • Few at 1,500' AGL
  • Scattered at 3,500' AGL
Temporary Apr-23 @ 20:00 to Apr-24 @ 02:00
TEMPO 2320/2402 1600 TSRA SCT012 FEW020CB BKN030
Visibility Clouds Conditions
1,593 meters
  • Scattered at 1,200' AGL
  • Few at 2,000' AGL
  • Broken at 3,000' AGL
  • Thunderstorm
  • Rain
Becoming Apr-23 @ 20:00 to Apr-24 @ 18:00
BECMG 2320/2321 34005G10MPS
Wind Visibility Clouds
340° at 10 knots
 Gusting to 19 knots
6,003 meters
  • Few at 1,500' AGL
  • Scattered at 3,500' AGL
Temporary Apr-24 @ 02:00 to Apr-24 @ 06:00
TEMPO 2402/2406 2000 SHRA SCT012 FEW020CB BKN030
Visibility Clouds Conditions
1,996 meters
  • Scattered at 1,200' AGL
  • Few at 2,000' AGL
  • Broken at 3,000' AGL
  • Rain
TAF ZGSZ 231522Z 2318/2418 17004MPS 6000 FEW015 SCT035 TX26/2406Z TN22/2322Z BECMG 2320/2321 34005G10MPS TEMPO 2320/2402 1600 TSRA SCT012 FEW020CB BKN030 TEMPO 2402/2406 2000 SHRA SCT012 FEW020CB BKN030
Issued Apr-23 @ 15:22 UTC
(8 hours ago)
Valid From Apr-23 @ 18:00 UTC
(5 hours ago)
Valid To Apr-24 @ 18:00 UTC
(in 19 hours)
Apr-23 @ 18:00 - Apr-23 @ 20:00
Wind Visibility
170° at 8 knots 6,003 meters
Clouds
  • Few at 1,500' AGL
  • Scattered at 3,500' AGL
Temporary Apr-23 @ 20:00 - Apr-24 @ 02:00
Clouds
  • Scattered at 1,200' AGL
  • Few at 2,000' AGL
  • Broken at 3,000' AGL
Conditions
  • Thunderstorm
  • Rain
Becoming Apr-23 @ 20:00 - Apr-24 @ 18:00
Wind Visibility
340° at 10 knots
 Gusting to 19 knots
6,003 meters
Clouds
  • Few at 1,500' AGL
  • Scattered at 3,500' AGL
Temporary Apr-24 @ 02:00 - Apr-24 @ 06:00
Clouds
  • Scattered at 1,200' AGL
  • Few at 2,000' AGL
  • Broken at 3,000' AGL
Conditions
  • Rain